Time;durP1;ratioP1;P1;durP2;ratioP2;P2;SDS_P1;SDS_P2;PMS_P1;PMS_P2;Temp;Humidity;BMP_temperature;BMP_pressure;BME280_temperature;BME280_humidity;BME280_pressure;Samples;Min_cycle;Max_cycle;Signal;HPM_P1;HPM_P2
2023/05/30 00:01:40;;;;;;;7.15;4.07;;;13.30;5.40;;;;;;6185062;23;20040;-87
2023/05/30 00:04:27;;;;;;;8.25;4.38;;;13.30;8.70;;;;;;6163812;23;20033;-87
2023/05/30 00:07:16;;;;;;;7.95;4.47;;;13.30;5.90;;;;;;6186507;23;20453;-86
2023/05/30 00:10:06;;;;;;;8.90;4.97;;;13.40;19.30;;;;;;6185285;23;20087;-86
2023/05/30 00:12:57;;;;;;;7.47;4.85;;;13.50;17.60;;;;;;6186914;23;20464;-87
2023/05/30 00:15:44;;;;;;;10.02;4.70;;;13.40;19.60;;;;;;6187254;23;20029;-87
2023/05/30 00:18:35;;;;;;;9.38;4.47;;;13.30;23.40;;;;;;6186060;23;20029;-88
2023/05/30 00:21:22;;;;;;;7.18;4.65;;;13.20;24.90;;;;;;6184994;23;20024;-87
2023/05/30 00:24:11;;;;;;;7.97;4.05;;;13.20;31.40;;;;;;6184727;23;20763;-87
2023/05/30 00:27:00;;;;;;;7.88;4.47;;;13.20;37.70;;;;;;6186143;23;20025;-89
2023/05/30 00:29:50;;;;;;;7.30;4.35;;;13.10;42.80;;;;;;6184033;23;20028;-87
2023/05/30 00:32:37;;;;;;;6.57;4.38;;;13.00;51.50;;;;;;6185392;23;20021;-87
2023/05/30 00:35:27;;;;;;;7.80;4.80;;;13.00;73.80;;;;;;6183878;23;20682;-87
2023/05/30 00:38:15;;;;;;;7.80;4.25;;;12.90;94.10;;;;;;6185046;23;20056;-88
2023/05/30 00:41:02;;;;;;;6.25;4.22;;;12.80;99.90;;;;;;6183864;23;20033;-89
2023/05/30 00:43:50;;;;;;;11.65;5.03;;;12.80;99.90;;;;;;6182988;23;20040;-88
2023/05/30 00:46:40;;;;;;;9.63;4.63;;;12.80;99.90;;;;;;6163172;23;20071;-88
2023/05/30 00:49:28;;;;;;;9.10;4.68;;;12.70;99.90;;;;;;6186193;23;20116;-88
2023/05/30 00:52:16;;;;;;;6.43;4.40;;;12.70;99.90;;;;;;6185025;23;20309;-87
2023/05/30 00:55:03;;;;;;;8.30;4.30;;;12.70;99.90;;;;;;6184053;23;20076;-86
2023/05/30 00:57:54;;;;;;;10.55;4.72;;;12.80;99.90;;;;;;6164852;23;20021;-87
2023/05/30 01:00:42;;;;;;;8.77;4.90;;;12.80;99.90;;;;;;6184257;23;20025;-88
2023/05/30 01:03:32;;;;;;;9.35;4.38;;;12.80;99.90;;;;;;6165237;23;20020;-89
2023/05/30 01:06:23;;;;;;;10.15;5.32;;;12.80;99.90;;;;;;6185673;23;20056;-89
2023/05/30 01:09:15;;;;;;;11.93;5.45;;;12.80;99.90;;;;;;6184397;23;20021;-87
2023/05/30 01:12:30;;;;;;;9.93;4.75;;;12.70;99.90;;;;;;6186315;23;20047;-88
2023/05/30 01:15:24;;;;;;;7.20;4.82;;;12.70;99.90;;;;;;6184128;23;20025;-85
2023/05/30 01:18:12;;;;;;;13.77;5.00;;;12.80;99.90;;;;;;6164481;23;20080;-88
2023/05/30 01:21:07;;;;;;;9.55;4.72;;;12.80;99.90;;;;;;6165447;23;20341;-89
2023/05/30 01:24:06;;;;;;;7.70;4.93;;;12.70;99.90;;;;;;6184360;23;20032;-87
2023/05/30 01:27:26;;;;;;;8.68;4.70;;;12.70;99.90;;;;;;6184292;23;20037;-86
2023/05/30 01:30:20;;;;;;;8.48;5.70;;;12.70;99.90;;;;;;6186122;23;20032;-87
2023/05/30 01:33:09;;;;;;;11.93;5.05;;;12.70;99.90;;;;;;6184017;23;20101;-89
2023/05/30 01:35:59;;;;;;;9.43;5.13;;;12.70;99.90;;;;;;6164668;23;20025;-88
2023/05/30 01:38:48;;;;;;;8.93;4.50;;;12.80;99.90;;;;;;6162660;23;20029;-87
2023/05/30 01:41:47;;;;;;;6.47;4.53;;;12.80;99.90;;;;;;6183227;23;20325;-89
2023/05/30 01:44:52;;;;;;;9.68;5.15;;;12.80;99.90;;;;;;6184189;23;20025;-88
2023/05/30 01:47:56;;;;;;;7.47;4.28;;;12.80;99.90;;;;;;6185716;23;20025;-90
2023/05/30 01:50:48;;;;;;;8.15;4.78;;;12.80;99.90;;;;;;6187543;23;20035;-88
2023/05/30 01:53:42;;;;;;;7.97;4.32;;;12.80;99.90;;;;;;6173666;23;20025;-88
2023/05/30 01:56:32;;;;;;;15.95;5.20;;;12.80;99.90;;;;;;6175504;23;20024;-88
2023/05/30 01:59:23;;;;;;;9.65;4.68;;;12.80;99.90;;;;;;6197511;23;20021;-89
2023/05/30 02:02:15;;;;;;;8.65;4.82;;;12.80;99.90;;;;;;6163675;23;20037;-86
2023/05/30 02:05:03;;;;;;;10.88;4.90;;;12.70;99.90;;;;;;6183495;23;20036;-88
2023/05/30 02:07:50;;;;;;;7.38;4.20;;;12.70;99.90;;;;;;6185293;23;20033;-86
2023/05/30 02:10:39;;;;;;;7.90;4.45;;;12.60;99.90;;;;;;6185790;23;20025;-87
2023/05/30 02:13:26;;;;;;;8.95;5.35;;;12.60;99.90;;;;;;6185590;23;20029;-87
2023/05/30 02:16:13;;;;;;;12.60;5.05;;;12.50;99.90;;;;;;6186155;23;20025;-90
2023/05/30 02:19:01;;;;;;;10.07;5.03;;;12.40;99.90;;;;;;6162393;23;20107;-86
2023/05/30 02:21:49;;;;;;;10.43;4.88;;;12.40;99.90;;;;;;6182674;23;20028;-88
2023/05/30 02:24:39;;;;;;;8.15;4.82;;;12.30;99.90;;;;;;6185394;23;20029;-87
2023/05/30 02:27:27;;;;;;;10.07;5.28;;;12.20;99.90;;;;;;6184919;23;20029;-88
2023/05/30 02:30:14;;;;;;;9.50;4.88;;;12.10;99.90;;;;;;6184461;23;20511;-89
2023/05/30 02:33:02;;;;;;;11.70;5.25;;;12.10;99.90;;;;;;6184043;23;20036;-87
2023/05/30 02:35:49;;;;;;;10.05;5.47;;;12.10;99.90;;;;;;6183779;23;20048;-89
2023/05/30 02:38:39;;;;;;;13.68;5.45;;;12.10;99.90;;;;;;6187083;23;20032;-89
2023/05/30 02:41:29;;;;;;;7.93;4.85;;;12.10;99.90;;;;;;6185632;23;20033;-90
2023/05/30 02:44:16;;;;;;;11.73;5.13;;;12.10;99.90;;;;;;6185520;23;20037;-88
2023/05/30 02:47:03;;;;;;;10.55;4.80;;;12.00;99.90;;;;;;6160863;23;20029;-89
2023/05/30 02:49:51;;;;;;;11.50;5.80;;;11.90;99.90;;;;;;6184136;23;20029;-89
2023/05/30 02:52:38;;;;;;;14.20;4.78;;;11.80;99.90;;;;;;6165248;23;20052;-90
2023/05/30 02:55:26;;;;;;;10.88;5.18;;;11.80;99.90;;;;;;6193856;23;20365;-90
2023/05/30 02:58:15;;;;;;;12.93;5.45;;;11.90;99.90;;;;;;6186463;23;20036;-89
2023/05/30 03:01:03;;;;;;;11.38;4.85;;;11.80;99.90;;;;;;6186956;23;20021;-91
2023/05/30 03:03:50;;;;;;;11.18;5.20;;;11.70;99.90;;;;;;6187333;23;20028;-90
2023/05/30 03:06:38;;;;;;;9.30;5.18;;;11.70;99.90;;;;;;6188861;23;20364;-91
2023/05/30 03:09:25;;;;;;;9.05;4.97;;;11.60;99.90;;;;;;6185444;23;20452;-87
2023/05/30 03:12:15;;;;;;;9.00;5.53;;;11.60;99.90;;;;;;6187494;23;20057;-90
2023/05/30 03:15:05;;;;;;;12.40;5.35;;;11.60;99.90;;;;;;6184596;23;20036;-89
2023/05/30 03:17:54;;;;;;;10.30;5.25;;;11.50;99.90;;;;;;6185232;23;20035;-88
2023/05/30 03:20:42;;;;;;;9.00;5.78;;;11.50;99.90;;;;;;6187538;23;20348;-90
2023/05/30 03:23:29;;;;;;;13.88;5.28;;;11.60;99.90;;;;;;6185321;23;20040;-87
2023/05/30 03:26:17;;;;;;;11.88;5.90;;;11.50;99.90;;;;;;6187845;23;20095;-88
2023/05/30 03:29:07;;;;;;;8.77;5.25;;;11.60;99.90;;;;;;6185860;23;20017;-89
2023/05/30 03:31:54;;;;;;;8.27;4.90;;;11.70;99.90;;;;;;6185634;23;20036;-90
2023/05/30 03:34:41;;;;;;;11.55;5.15;;;11.80;99.90;;;;;;6186955;23;20100;-90
2023/05/30 03:37:28;;;;;;;12.95;5.22;;;11.70;99.90;;;;;;6184535;23;20417;-89
2023/05/30 03:40:16;;;;;;;10.77;5.82;;;11.60;99.90;;;;;;6185562;23;20032;-89
2023/05/30 03:43:03;;;;;;;9.52;5.32;;;11.50;99.90;;;;;;6185576;23;20029;-89
2023/05/30 03:45:50;;;;;;;12.20;5.68;;;11.40;99.90;;;;;;6187296;23;20031;-90
2023/05/30 03:48:38;;;;;;;10.15;4.85;;;11.40;99.90;;;;;;6184864;23;20168;-88
2023/05/30 03:51:26;;;;;;;15.75;5.32;;;11.30;99.90;;;;;;6187525;23;20032;-89
2023/05/30 03:54:13;;;;;;;11.98;5.28;;;11.30;99.90;;;;;;6186104;23;20032;-88
2023/05/30 03:57:01;;;;;;;13.00;5.38;;;11.40;99.90;;;;;;6187766;23;20040;-87
2023/05/30 03:59:50;;;;;;;10.15;4.88;;;11.40;99.90;;;;;;6165562;23;20060;-90
2023/05/30 04:02:58;;;;;;;14.00;6.22;;;11.40;99.90;;;;;;6189574;23;20060;-87
2023/05/30 04:06:37;;;;;;;10.75;5.63;;;11.40;99.90;;;;;;6124512;23;20319;-89
2023/05/30 04:09:25;;;;;;;12.15;5.65;;;11.50;99.90;;;;;;6105321;23;20065;-88
2023/05/30 04:12:14;;;;;;;12.30;5.40;;;11.50;99.90;;;;;;6106424;23;20045;-90
2023/05/30 04:15:02;;;;;;;11.02;5.72;;;11.50;1.00;;;;;;6124756;23;20033;-88
2023/05/30 04:17:49;;;;;;;14.40;6.10;;;11.50;1.00;;;;;;6125056;23;20399;-91
2023/05/30 04:20:37;;;;;;;15.85;5.65;;;11.50;1.00;;;;;;6126159;23;20719;-90
2023/05/30 04:23:25;;;;;;;10.25;5.65;;;11.50;1.00;;;;;;6128723;23;20057;-89
2023/05/30 04:26:13;;;;;;;11.75;5.75;;;11.60;1.00;;;;;;6125007;23;20026;-89
2023/05/30 04:29:00;;;;;;;12.40;5.80;;;11.70;1.00;;;;;;6122221;23;20021;-90
2023/05/30 04:31:47;;;;;;;9.43;5.85;;;11.70;1.00;;;;;;6123602;23;20345;-89
2023/05/30 04:34:35;;;;;;;9.07;5.43;;;11.80;1.00;;;;;;6105859;23;20116;-90
2023/05/30 04:37:22;;;;;;;10.93;5.93;;;11.90;1.00;;;;;;6178436;23;20029;-89
2023/05/30 04:40:13;;;;;;;9.55;5.60;;;12.00;1.00;;;;;;6183279;23;20302;-91
2023/05/30 04:43:00;;;;;;;13.60;6.20;;;12.00;1.00;;;;;;6183590;23;20087;-92
2023/05/30 04:45:50;;;;;;;11.20;6.07;;;12.10;1.00;;;;;;6186398;23;20037;-90
2023/05/30 04:49:00;;;;;;;10.85;6.20;;;12.10;1.00;;;;;;6183766;23;20039;-89
2023/05/30 04:51:48;;;;;;;14.10;5.90;;;12.10;1.00;;;;;;6187863;23;20033;-89
2023/05/30 04:54:36;;;;;;;9.30;5.95;;;12.20;1.00;;;;;;6169703;23;20021;-90
2023/05/30 04:57:25;;;;;;;15.38;6.43;;;12.20;1.00;;;;;;6197472;23;20009;-92
2023/05/30 05:00:16;;;;;;;11.18;6.28;;;12.20;1.00;;;;;;6194722;23;20035;-91
2023/05/30 05:03:04;;;;;;;12.82;5.88;;;12.30;1.00;;;;;;6187790;23;20139;-92
2023/05/30 05:05:54;;;;;;;8.73;5.20;;;12.40;1.00;;;;;;6188375;23;20464;-93
2023/05/30 05:08:41;;;;;;;9.13;5.57;;;12.50;99.90;;;;;;6187761;23;20043;-95
2023/05/30 05:11:31;;;;;;;10.63;6.30;;;12.50;99.90;;;;;;6187515;23;20025;-93
2023/05/30 05:14:18;;;;;;;9.85;5.68;;;12.60;99.90;;;;;;6186431;23;20032;-89
2023/05/30 05:17:07;;;;;;;9.60;5.40;;;12.70;99.90;;;;;;6185163;23;20029;-92
2023/05/30 05:19:55;;;;;;;13.30;5.68;;;12.80;99.90;;;;;;6185949;23;20132;-94
2023/05/30 05:22:45;;;;;;;10.82;5.85;;;12.90;99.90;;;;;;6188278;23;20087;-91
2023/05/30 05:25:32;;;;;;;10.25;5.45;;;13.00;99.90;;;;;;6183910;23;20471;-89
2023/05/30 05:28:19;;;;;;;9.63;5.05;;;13.10;99.90;;;;;;6185012;23;20025;-89
2023/05/30 05:31:14;;;;;;;10.48;5.72;;;13.20;99.90;;;;;;6178204;23;20028;-92
2023/05/30 05:34:02;;;;;;;8.82;5.30;;;13.30;99.90;;;;;;6186968;23;20506;-94
2023/05/30 05:36:53;;;;;;;11.13;5.85;;;13.40;99.90;;;;;;6186068;23;20025;-92
2023/05/30 05:39:48;;;;;;;7.88;5.65;;;13.50;99.90;;;;;;6186757;23;20032;-91
2023/05/30 05:48:10;;;;;;;;;;;;;;;;;;;;;
2023/05/30 05:56:06;;;;;;;;;;;;;;;;;;;;;
2023/05/30 06:00:11;;;;;;;;;;;;;;;;;;;;;
2023/05/30 06:07:58;;;;;;;11.57;4.65;;;14.50;99.90;;;;;;5898505;24;20041;-91
2023/05/30 06:11:15;;;;;;;8.30;4.70;;;14.70;99.90;;;;;;5921712;23;20040;-90
2023/05/30 06:14:34;;;;;;;8.68;4.80;;;14.90;99.90;;;;;;6166941;23;20021;-91
2023/05/30 06:30:00;;;;;;;;;;;;;;;;;;;;;
2023/05/30 06:33:47;;;;;;;10.23;4.75;;;15.90;99.90;;;;;;6007697;23;20036;-89
2023/05/30 06:36:56;;;;;;;8.45;4.68;;;16.10;99.90;;;;;;6105178;23;20036;-89
2023/05/30 06:43:22;;;;;;;10.48;4.40;;;16.20;99.90;;;;;;6072741;23;20035;-91
2023/05/30 06:46:55;;;;;;;;;;;;;;;;;;;;;
2023/05/30 06:50:08;;;;;;;11.75;5.10;;;16.40;88.30;;;;;;6182271;23;20021;-88
2023/05/30 06:52:58;;;;;;;8.90;4.50;;;16.30;52.60;;;;;;6182431;23;20053;-89
2023/05/30 06:56:05;;;;;;;9.20;4.90;;;16.40;51.00;;;;;;6185487;23;20025;-91
2023/05/30 06:59:21;;;;;;;12.73;5.15;;;16.70;50.10;;;;;;6158841;23;20036;-89
2023/05/30 07:02:10;;;;;;;9.68;4.63;;;16.80;28.10;;;;;;6183108;23;20345;-86
2023/05/30 07:04:58;;;;;;;8.65;4.90;;;16.80;23.80;;;;;;6182653;23;20421;-88
2023/05/30 07:07:58;;;;;;;8.77;5.15;;;17.10;33.50;;;;;;6164851;23;20060;-87
2023/05/30 07:11:10;;;;;;;10.75;5.07;;;17.20;17.20;;;;;;6188165;23;20032;-92
2023/05/30 07:14:00;;;;;;;8.18;4.80;;;17.40;13.40;;;;;;6187684;23;20035;-88
2023/05/30 07:17:17;;;;;;;44.67;5.47;;;17.60;1.00;;;;;;6184605;23;20025;-91
2023/05/30 07:20:31;;;;;;;9.32;4.50;;;17.70;1.00;;;;;;6184525;23;20059;-92
2023/05/30 07:23:21;;;;;;;9.23;4.78;;;17.80;1.00;;;;;;6163366;23;21084;-89
2023/05/30 07:26:09;;;;;;;10.10;4.70;;;17.80;1.00;;;;;;6183356;23;20133;-86
2023/05/30 07:28:57;;;;;;;12.07;5.18;;;18.00;1.00;;;;;;6184653;23;20084;-92
2023/05/30 07:31:48;;;;;;;11.30;4.80;;;18.20;1.00;;;;;;6184412;23;20021;-88
2023/05/30 07:34:47;;;;;;;;;;;;;;;;;;;;;
2023/05/30 07:37:53;;;;;;;10.23;5.00;;;18.50;1.00;;;;;;6183309;23;20017;-90
2023/05/30 07:40:43;;;;;;;9.80;4.68;;;18.50;1.00;;;;;;6163173;23;20115;-91
2023/05/30 07:43:51;;;;;;;9.77;4.18;;;18.70;1.00;;;;;;6165431;23;20028;-90
2023/05/30 07:46:38;;;;;;;8.98;4.35;;;18.80;1.00;;;;;;6162429;23;20032;-91
2023/05/30 07:49:43;;;;;;;11.18;4.70;;;19.40;1.00;;;;;;6185713;23;20035;-89
2023/05/30 07:52:33;;;;;;;12.82;4.82;;;19.70;1.00;;;;;;6189750;23;20401;-88
2023/05/30 07:55:30;;;;;;;8.25;4.47;;;19.80;1.00;;;;;;6186421;23;20385;-92
2023/05/30 07:58:22;;;;;;;11.57;5.07;;;19.90;1.00;;;;;;6185778;23;20031;-89
2023/05/30 08:01:12;;;;;;;7.65;4.47;;;20.10;1.00;;;;;;6183314;23;20033;-91
2023/05/30 08:04:00;;;;;;;8.82;4.40;;;20.50;1.00;;;;;;6183923;23;20029;-89
2023/05/30 08:06:47;;;;;;;8.30;4.47;;;20.70;1.00;;;;;;6193038;23;20091;-89
2023/05/30 08:09:41;;;;;;;11.88;4.38;;;20.90;1.00;;;;;;6163368;23;20421;-89
2023/05/30 08:12:31;;;;;;;12.23;5.22;;;20.70;1.00;;;;;;6165475;23;20029;-86
2023/05/30 08:15:19;;;;;;;9.43;5.07;;;20.50;1.00;;;;;;6160968;23;20369;-87
2023/05/30 08:18:08;;;;;;;9.43;4.28;;;20.30;1.00;;;;;;6194079;23;20025;-87
2023/05/30 08:21:02;;;;;;;11.25;5.03;;;20.90;1.00;;;;;;6187214;23;20048;-85
2023/05/30 08:23:52;;;;;;;8.65;4.35;;;21.80;1.00;;;;;;6164973;23;20594;-87
2023/05/30 08:26:48;;;;;;;13.85;4.68;;;22.50;1.00;;;;;;6166156;23;20076;-87
2023/05/30 08:30:03;;;;;;;;;;;;;;;;;;;;;
2023/05/30 08:32:57;;;;;;;10.25;4.28;;;23.30;1.00;;;;;;6188621;23;20021;-91
2023/05/30 08:35:52;;;;;;;5.90;3.97;;;23.60;1.00;;;;;;6183857;23;20029;-88
2023/05/30 08:38:46;;;;;;;9.27;4.50;;;24.10;1.00;;;;;;6184661;23;20035;-86
2023/05/30 08:42:02;;;;;;;9.57;4.70;;;23.40;1.00;;;;;;6184515;23;20043;-89
2023/05/30 08:44:52;;;;;;;10.32;4.25;;;23.50;1.00;;;;;;6163296;23;20025;-88
2023/05/30 08:47:47;;;;;;;10.02;4.53;;;23.60;1.00;;;;;;6184392;23;20029;-88
2023/05/30 08:50:36;;;;;;;9.23;4.13;;;23.70;1.00;;;;;;6163791;23;20047;-87
2023/05/30 08:53:34;;;;;;;8.27;4.15;;;23.80;1.00;;;;;;6184024;23;20231;-88
2023/05/30 08:56:37;;;;;;;10.63;4.22;;;24.10;1.00;;;;;;6160703;23;20421;-89
2023/05/30 08:59:39;;;;;;;;;;;;;;;;;;;;;
2023/05/30 09:02:58;;;;;;;8.30;4.22;;;24.60;1.00;;;;;;6181530;23;20035;-92
2023/05/30 09:06:00;;;;;;;7.85;4.25;;;25.00;1.00;;;;;;6091842;23;20128;-88
2023/05/30 09:09:02;;;;;;;8.40;3.92;;;24.40;1.00;;;;;;6164297;23;20029;-89
2023/05/30 09:12:10;;;;;;;10.50;4.00;;;24.80;1.00;;;;;;6164970;23;20116;-89
2023/05/30 09:22:27;;;;;;;7.18;3.72;;;25.70;1.00;;;;;;6160038;23;20021;-91
2023/05/30 09:26:46;;;;;;;;;;;;;;;;;;;;;
2023/05/30 09:29:49;;;;;;;9.82;4.20;;;26.70;1.00;;;;;;5983415;24;20088;-87
2023/05/30 09:32:49;;;;;;;;;;;;;;;;;;;;;
2023/05/30 09:37:00;;;;;;;;;;;;;;;;;;;;;
2023/05/30 09:40:06;;;;;;;8.05;3.88;;;27.50;1.00;;;;;;6132629;23;20146;-89
2023/05/30 09:43:38;;;;;;;8.55;4.22;;;27.10;1.00;;;;;;6131096;23;20090;-90
2023/05/30 09:46:27;;;;;;;9.55;3.53;;;26.70;1.00;;;;;;6130866;23;20055;-87
2023/05/30 09:49:34;;;;;;;11.95;4.65;;;27.00;1.00;;;;;;6134961;23;20140;-88
2023/05/30 09:52:24;;;;;;;11.13;4.20;;;27.20;1.00;;;;;;6154285;23;20040;-85
2023/05/30 09:56:06;;;;;;;8.57;3.80;;;27.00;1.00;;;;;;6152247;23;20022;-89
2023/05/30 09:59:13;;;;;;;10.52;4.25;;;26.40;1.00;;;;;;6134282;23;20040;-89
2023/05/30 10:02:56;;;;;;;7.53;3.90;;;26.40;1.00;;;;;;6135933;23;20029;-91
2023/05/30 10:10:56;;;;;;;;;;;;;;;;;;;;;
2023/05/30 10:14:13;;;;;;;10.07;3.83;;;27.90;1.00;;;;;;6039549;23;20011;-90
2023/05/30 10:18:16;;;;;;;10.40;3.92;;;28.10;1.00;;;;;;5952955;24;20604;-89
2023/05/30 10:20:53;;;;;;;9.35;3.78;;;28.00;1.00;;;;;;6035507;23;20027;-87
2023/05/30 10:23:41;;;;;;;7.97;3.90;;;27.80;1.00;;;;;;6092757;23;20413;-88
2023/05/30 10:26:40;;;;;;;10.40;4.53;;;27.80;1.00;;;;;;6180652;23;20452;-90
2023/05/30 10:29:59;;;;;;;9.05;4.00;;;28.30;1.00;;;;;;6164417;23;20115;-92
2023/05/30 10:33:06;;;;;;;6.50;3.72;;;28.30;1.00;;;;;;6163992;23;20029;-89
2023/05/30 10:36:33;;;;;;;;;;;;;;;;;;;;;
2023/05/30 10:40:16;;;;;;;;;;;;;;;;;;;;;
2023/05/30 10:43:58;;;;;;;8.07;3.50;;;28.50;1.00;;;;;;6180529;23;20113;-90
2023/05/30 10:47:10;;;;;;;6.45;3.55;;;28.40;1.00;;;;;;6155424;23;20057;-91
2023/05/30 10:50:04;;;;;;;7.00;3.72;;;28.70;1.00;;;;;;6182450;23;20029;-85
2023/05/30 10:52:57;;;;;;;12.43;3.70;;;28.50;1.00;;;;;;6162459;23;20021;-90
2023/05/30 10:55:50;;;;;;;6.68;3.38;;;28.50;1.00;;;;;;6184279;23;20053;-87
2023/05/30 10:58:43;;;;;;;6.70;3.47;;;29.00;1.00;;;;;;6184000;23;20025;-86
2023/05/30 11:01:36;;;;;;;9.48;3.60;;;29.00;1.00;;;;;;6183083;23;20047;-88
2023/05/30 11:04:38;;;;;;;8.48;3.55;;;29.00;1.00;;;;;;6183245;23;20032;-87
2023/05/30 11:07:41;;;;;;;11.38;3.78;;;29.30;1.00;;;;;;6183275;23;20100;-89
2023/05/30 11:10:29;;;;;;;7.68;3.00;;;29.10;1.00;;;;;;6162027;23;20036;-89
2023/05/30 11:14:39;;;;;;;7.60;3.30;;;29.60;1.00;;;;;;6185942;23;20132;-91
2023/05/30 11:22:15;;;;;;;8.55;3.15;;;30.10;1.00;;;;;;6185886;23;20068;-90
2023/05/30 11:25:58;;;;;;;7.50;3.50;;;29.80;1.00;;;;;;6167119;23;20044;-86
2023/05/30 11:30:04;;;;;;;;;;;;;;;;;;;;;
2023/05/30 11:33:21;;;;;;;;;;;;;;;;;;;;;
2023/05/30 11:36:50;;;;;;;;;;;;;;;;;;;;;
2023/05/30 11:43:49;;;;;;;10.45;3.03;;;30.20;1.00;;;;;;6071678;23;20409;-87
2023/05/30 11:47:09;;;;;;;7.97;3.50;;;27.80;1.00;;;;;;6068345;23;20034;-91
2023/05/30 11:50:13;;;;;;;5.65;3.30;;;27.50;1.00;;;;;;6053097;23;20106;-89
2023/05/30 11:53:09;;;;;;;5.30;3.42;;;28.30;1.00;;;;;;6104264;23;20025;-89
2023/05/30 11:56:54;;;;;;;6.40;3.33;;;29.70;1.00;;;;;;6171852;23;20077;-91
2023/05/30 12:00:12;;;;;;;6.68;3.00;;;29.70;1.00;;;;;;6170531;23;20025;-92
2023/05/30 12:03:59;;;;;;;6.13;3.35;;;29.40;1.00;;;;;;6189375;23;20036;-90
2023/05/30 12:11:24;;;;;;;6.43;3.15;;;29.10;1.00;;;;;;6099989;23;20022;-91
2023/05/30 12:45:07;;;;;;;;;;;;;;;;;;;;;
2023/05/30 12:52:22;;;;;;;6.00;3.38;;;30.20;1.00;;;;;;6022765;23;20023;-88
2023/05/30 12:55:55;;;;;;;6.88;3.17;;;31.20;1.00;;;;;;6167598;23;20028;-91
2023/05/30 13:03:38;;;;;;;4.82;3.10;;;31.50;1.00;;;;;;5982286;24;20087;-91
2023/05/30 13:06:41;;;;;;;8.25;3.03;;;30.80;1.00;;;;;;5984023;23;20024;-88
2023/05/30 13:10:08;;;;;;;6.60;2.83;;;30.90;1.00;;;;;;5986188;24;20032;-91
2023/05/30 13:13:06;;;;;;;11.93;3.20;;;31.90;1.00;;;;;;5996499;23;20135;-89
2023/05/30 13:15:56;;;;;;;4.78;3.08;;;32.60;1.00;;;;;;6134930;23;20489;-88
2023/05/30 13:19:11;;;;;;;6.63;3.05;;;33.00;1.00;;;;;;6176021;23;20582;-90
2023/05/30 13:22:34;;;;;;;6.68;3.05;;;31.80;1.00;;;;;;6055758;23;20090;-90
2023/05/30 13:28:58;;;;;;;7.47;2.70;;;31.70;1.00;;;;;;6066486;23;20014;-89
2023/05/30 13:31:58;;;;;;;5.85;3.08;;;32.60;1.00;;;;;;6048720;23;20023;-91
2023/05/30 13:35:33;;;;;;;6.95;3.30;;;31.80;1.00;;;;;;5984524;24;20025;-92
2023/05/30 13:38:21;;;;;;;7.18;3.25;;;29.30;1.00;;;;;;5981267;24;20087;-87
2023/05/30 13:41:39;;;;;;;4.60;3.22;;;30.00;1.00;;;;;;5979919;24;20028;-88
2023/05/30 13:45:10;;;;;;;9.80;3.47;;;30.50;1.00;;;;;;5879774;24;20117;-89
2023/05/30 13:48:27;;;;;;;6.07;3.13;;;30.70;1.00;;;;;;5900892;24;20057;-91
2023/05/30 13:51:13;;;;;;;7.68;3.42;;;29.30;1.00;;;;;;5896371;24;20481;-89
2023/05/30 13:54:05;;;;;;;6.57;2.97;;;28.40;1.00;;;;;;5897439;24;20034;-88
2023/05/30 13:56:57;;;;;;;8.38;3.15;;;29.40;1.00;;;;;;6035913;23;20121;-89
2023/05/30 13:59:46;;;;;;;4.72;3.30;;;29.90;1.00;;;;;;6017177;23;20023;-89
2023/05/30 14:02:36;;;;;;;6.63;3.03;;;30.20;1.00;;;;;;6019332;23;20046;-89
2023/05/30 14:05:24;;;;;;;8.77;2.85;;;30.40;1.00;;;;;;6151815;23;20033;-86
2023/05/30 14:08:18;;;;;;;7.45;3.25;;;30.60;1.00;;;;;;6169382;23;20035;-89
2023/05/30 14:11:22;;;;;;;10.13;3.20;;;30.40;1.00;;;;;;6184969;23;20040;-89
2023/05/30 14:14:29;;;;;;;5.95;2.95;;;30.50;1.00;;;;;;6185304;23;20041;-91
2023/05/30 14:17:18;;;;;;;6.75;2.95;;;30.40;1.00;;;;;;6162647;23;20025;-90
2023/05/30 14:20:14;;;;;;;8.48;2.92;;;31.20;1.00;;;;;;6187304;23;20032;-89
2023/05/30 14:23:15;;;;;;;9.93;3.50;;;31.10;1.00;;;;;;6168685;23;20041;-90
2023/05/30 14:26:07;;;;;;;7.68;3.40;;;28.80;1.00;;;;;;6163296;23;20100;-87
2023/05/30 14:28:54;;;;;;;10.70;3.63;;;26.70;1.00;;;;;;6164472;23;20039;-87
2023/05/30 14:31:42;;;;;;;8.38;3.60;;;25.70;1.00;;;;;;6159745;23;20147;-91
2023/05/30 14:34:31;;;;;;;7.25;3.13;;;27.00;1.00;;;;;;6164100;23;20033;-89
2023/05/30 14:37:26;;;;;;;8.52;3.05;;;28.20;1.00;;;;;;6190305;23;20029;-90
2023/05/30 14:40:17;;;;;;;14.45;5.85;;;29.10;1.00;;;;;;6193882;23;20037;-91
2023/05/30 14:43:19;;;;;;;5.72;2.85;;;28.60;1.00;;;;;;6194808;23;20096;-89
2023/05/30 14:46:09;;;;;;;12.00;3.42;;;28.50;1.00;;;;;;6196193;23;20024;-88
2023/05/30 14:49:12;;;;;;;;;;;;;;;;;;;;;
2023/05/30 14:52:06;;;;;;;7.45;3.40;;;26.10;1.00;;;;;;6191773;23;20104;-90
2023/05/30 14:54:57;;;;;;;7.93;3.38;;;26.50;1.00;;;;;;6165366;23;20032;-86
2023/05/30 14:57:44;;;;;;;4.70;3.00;;;27.50;1.00;;;;;;6183391;23;20029;-87
2023/05/30 15:00:33;;;;;;;7.88;3.13;;;28.10;1.00;;;;;;6163126;23;20035;-85
2023/05/30 15:03:23;;;;;;;8.95;2.90;;;28.20;1.00;;;;;;6163917;23;20083;-84
2023/05/30 15:06:13;;;;;;;10.15;3.10;;;28.20;1.00;;;;;;6184874;23;20025;-85
2023/05/30 15:09:02;;;;;;;10.18;3.15;;;28.40;1.00;;;;;;6162842;23;20031;-85
2023/05/30 15:11:52;;;;;;;6.90;3.17;;;28.50;1.00;;;;;;6164230;23;20080;-89
2023/05/30 15:14:39;;;;;;;5.90;2.92;;;28.20;1.00;;;;;;6185868;23;20029;-88
2023/05/30 15:17:27;;;;;;;8.25;3.17;;;27.50;1.00;;;;;;6184269;23;20040;-89
2023/05/30 15:20:15;;;;;;;6.13;2.55;;;27.10;1.00;;;;;;6183759;23;20028;-88
2023/05/30 15:23:02;;;;;;;7.25;3.28;;;27.20;1.00;;;;;;6163192;23;20025;-87
2023/05/30 15:25:50;;;;;;;9.70;3.15;;;27.00;1.00;;;;;;6183637;23;20032;-86
2023/05/30 15:28:37;;;;;;;9.57;3.33;;;26.80;1.00;;;;;;6184190;23;20029;-85
2023/05/30 15:31:25;;;;;;;6.60;2.75;;;26.50;1.00;;;;;;6162592;23;20040;-88
2023/05/30 15:34:17;;;;;;;7.88;2.88;;;26.30;1.00;;;;;;6182934;23;20095;-86
2023/05/30 15:37:04;;;;;;;8.18;3.13;;;26.70;1.00;;;;;;6186572;23;20127;-91
2023/05/30 15:39:53;;;;;;;12.45;3.00;;;27.00;1.00;;;;;;6165723;23;20031;-90
2023/05/30 15:42:41;;;;;;;8.13;3.00;;;27.10;1.00;;;;;;6167879;23;20033;-89
2023/05/30 15:45:28;;;;;;;15.13;2.97;;;26.40;1.00;;;;;;6186604;23;20087;-88
2023/05/30 15:48:15;;;;;;;5.72;3.08;;;26.70;1.00;;;;;;6187826;23;20024;-93
2023/05/30 15:51:03;;;;;;;6.20;3.15;;;26.50;1.00;;;;;;6186503;23;20029;-88
2023/05/30 15:53:52;;;;;;;5.75;3.05;;;26.10;1.00;;;;;;6187508;23;20029;-90
2023/05/30 15:56:39;;;;;;;8.07;3.30;;;26.00;1.00;;;;;;6186866;23;20020;-88
2023/05/30 15:59:28;;;;;;;7.70;2.85;;;25.50;1.00;;;;;;6184618;23;20036;-88
2023/05/30 16:02:15;;;;;;;10.88;3.30;;;25.40;1.00;;;;;;6166208;23;20029;-88
2023/05/30 16:05:05;;;;;;;5.22;2.85;;;25.20;1.00;;;;;;6166654;23;20069;-87
2023/05/30 16:07:52;;;;;;;4.95;3.20;;;25.50;1.00;;;;;;6186451;23;20057;-87
2023/05/30 16:10:39;;;;;;;6.65;3.13;;;25.10;1.00;;;;;;6164616;23;20029;-87
2023/05/30 16:13:30;;;;;;;8.43;3.22;;;24.50;1.00;;;;;;6164168;23;20306;-85
2023/05/30 16:16:17;;;;;;;8.30;3.40;;;24.00;1.00;;;;;;6185929;23;20029;-89
2023/05/30 16:19:07;;;;;;;7.53;3.47;;;24.10;1.00;;;;;;6186553;23;20021;-87
2023/05/30 16:21:54;;;;;;;10.90;3.47;;;24.00;1.00;;;;;;6165826;23;20033;-91
2023/05/30 16:24:42;;;;;;;7.22;3.03;;;23.70;1.00;;;;;;6165128;23;20025;-88
2023/05/30 16:27:29;;;;;;;9.98;3.45;;;23.40;1.00;;;;;;6187237;23;20088;-89
2023/05/30 16:30:16;;;;;;;9.02;3.45;;;23.20;1.00;;;;;;6165966;23;20433;-89
2023/05/30 16:33:04;;;;;;;9.52;3.30;;;23.30;1.00;;;;;;6166404;23;20029;-87
2023/05/30 16:36:04;;;;;;;10.60;3.20;;;23.10;1.00;;;;;;6186876;23;20032;-87
2023/05/30 16:38:51;;;;;;;8.07;2.88;;;23.00;1.00;;;;;;6184701;23;20024;-87
2023/05/30 16:41:44;;;;;;;7.38;3.10;;;22.70;1.00;;;;;;6166075;23;20036;-84
2023/05/30 16:44:32;;;;;;;9.45;3.03;;;22.50;1.00;;;;;;6164171;23;20352;-90
2023/05/30 16:47:19;;;;;;;8.63;2.95;;;22.20;1.00;;;;;;6185039;23;20029;-92
2023/05/30 16:50:07;;;;;;;8.80;2.90;;;22.00;1.00;;;;;;6186088;23;20071;-91
2023/05/30 16:52:55;;;;;;;8.80;3.42;;;21.80;1.00;;;;;;6163202;23;20333;-87
2023/05/30 16:55:43;;;;;;;7.13;3.05;;;21.60;1.00;;;;;;6184651;23;20025;-87
2023/05/30 16:58:30;;;;;;;8.55;3.00;;;21.40;1.00;;;;;;6183888;23;20052;-89
2023/05/30 17:01:18;;;;;;;7.18;3.22;;;21.30;1.00;;;;;;6165019;23;20025;-87
2023/05/30 17:04:06;;;;;;;9.02;2.72;;;21.20;1.00;;;;;;6184851;23;20025;-87
2023/05/30 17:06:53;;;;;;;7.85;3.17;;;21.20;1.00;;;;;;6184804;23;20036;-88
2023/05/30 17:09:41;;;;;;;8.82;3.00;;;21.00;1.00;;;;;;6185925;23;20458;-87
2023/05/30 17:12:29;;;;;;;8.02;3.13;;;21.00;1.00;;;;;;6186432;23;20028;-88
2023/05/30 17:15:18;;;;;;;5.75;3.00;;;20.90;1.00;;;;;;6165849;23;20029;-86
2023/05/30 17:18:05;;;;;;;7.28;3.33;;;20.80;1.00;;;;;;6184483;23;20029;-89
2023/05/30 17:20:54;;;;;;;5.65;3.00;;;20.70;1.00;;;;;;6183814;23;20092;-92
2023/05/30 17:23:42;;;;;;;5.75;2.88;;;20.60;1.00;;;;;;6164890;23;20028;-89
2023/05/30 17:26:29;;;;;;;11.73;2.95;;;20.60;1.00;;;;;;6184517;23;20122;-88
2023/05/30 17:29:19;;;;;;;9.35;2.75;;;20.50;1.00;;;;;;6189269;23;20024;-88